Time,TemperatureF,DewpointF,PressureIn,WindDirection,WindDirectionDegrees,WindSpeedMPH,WindSpeedGustMPH,Humidity,HourlyPrecipIn,Conditions,Clouds,dailyrainin,SoftwareType,DateUTC
2013-04-01 00:00:00,56.0,54.0,30.06,SSE,154,2.0,5.0,91,0.00,,,0.00,weatherlink.com 1.10,2013-04-01 07:00:00,
2013-04-01 00:15:00,56.1,54.0,30.06,SSE,164,2.0,5.0,92,0.00,,,0.00,weatherlink.com 1.10,2013-04-01 07:15:00,
2013-04-01 00:30:00,55.9,54.0,30.06,SE,146,4.0,5.0,93,0.00,,,0.00,weatherlink.com 1.10,2013-04-01 07:30:00,
2013-04-01 00:45:00,55.6,54.0,30.06,SSE,162,2.0,4.0,94,0.04,,,0.04,weatherlink.com 1.10,2013-04-01 07:45:00,
2013-04-01 01:00:00,55.3,54.0,30.07,SE,129,2.0,3.0,95,0.06,,,0.06,weatherlink.com 1.10,2013-04-01 08:00:00,
2013-04-01 01:15:00,55.4,54.0,30.07,SSE,163,1.0,4.0,95,0.06,,,0.06,weatherlink.com 1.10,2013-04-01 08:15:00,
2013-04-01 01:30:00,55.3,54.0,30.07,South,189,1.0,3.0,95,0.06,,,0.06,weatherlink.com 1.10,2013-04-01 08:30:00,
2013-04-01 01:45:00,55.1,54.0,30.07,SSE,148,3.0,4.0,95,0.02,,,0.06,weatherlink.com 1.10,2013-04-01 08:45:00,
2013-04-01 02:00:00,55.2,54.0,30.07,SSE,158,1.0,2.0,96,0.00,,,0.06,weatherlink.com 1.10,2013-04-01 09:00:00,
2013-04-01 02:15:00,55.3,54.0,30.07,SSE,158,0.0,1.0,96,0.01,,,0.07,weatherlink.com 1.10,2013-04-01 09:15:00,
2013-04-01 02:30:00,55.2,54.0,30.07,SSE,158,0.0,2.0,96,0.01,,,0.07,weatherlink.com 1.10,2013-04-01 09:30:00,
2013-04-01 02:45:00,55.0,54.0,30.07,SSE,158,0.0,2.0,96,0.01,,,0.07,weatherlink.com 1.10,2013-04-01 09:45:00,
2013-04-01 03:00:00,54.3,53.0,30.08,SSE,158,0.0,0.0,94,0.01,,,0.07,weatherlink.com 1.10,2013-04-01 10:00:00,
2013-04-01 03:15:00,54.1,53.0,30.08,SSE,158,0.0,0.0,97,0.00,,,0.07,weatherlink.com 1.10,2013-04-01 10:15:00,
2013-04-01 03:30:00,54.2,53.0,30.08,SSE,158,0.0,0.0,97,0.00,,,0.07,weatherlink.com 1.10,2013-04-01 10:30:00,
2013-04-01 03:45:00,53.8,53.0,30.08,SSE,158,0.0,0.0,97,0.00,,,0.07,weatherlink.com 1.10,2013-04-01 10:45:00,
2013-04-01 04:00:00,53.9,53.0,30.08,SSE,158,0.0,0.0,97,0.00,,,0.07,weatherlink.com 1.10,2013-04-01 11:00:00,
2013-04-01 04:15:00,54.3,54.0,30.08,SSE,158,0.0,2.0,98,0.00,,,0.07,weatherlink.com 1.10,2013-04-01 11:15:00,
2013-04-01 04:30:00,54.5,54.0,30.08,SSE,158,0.0,1.0,98,0.00,,,0.07,weatherlink.com 1.10,2013-04-01 11:30:00,
2013-04-01 04:45:00,54.5,54.0,30.08,SSE,158,0.0,1.0,97,0.00,,,0.07,weatherlink.com 1.10,2013-04-01 11:45:00,
2013-04-01 05:00:00,53.7,53.0,30.08,SSE,158,0.0,1.0,96,0.00,,,0.07,weatherlink.com 1.10,2013-04-01 12:00:00,
2013-04-01 05:15:00,53.2,52.0,30.08,SW,225,0.0,1.0,97,0.00,,,0.07,weatherlink.com 1.10,2013-04-01 12:15:00,
2013-04-01 05:30:00,53.1,52.0,30.09,SW,225,0.0,1.0,97,0.00,,,0.07,weatherlink.com 1.10,2013-04-01 12:30:00,
2013-04-01 05:45:00,52.6,52.0,30.09,SW,226,0.0,2.0,97,0.00,,,0.07,weatherlink.com 1.10,2013-04-01 12:45:00,
2013-04-01 06:00:00,52.3,52.0,30.09,SW,226,0.0,0.0,98,0.00,,,0.07,weatherlink.com 1.10,2013-04-01 13:00:00,
2013-04-01 06:15:00,52.2,52.0,30.09,SW,226,0.0,2.0,98,0.00,,,0.07,weatherlink.com 1.10,2013-04-01 13:15:00,
2013-04-01 06:30:00,52.3,52.0,30.09,SW,226,0.0,0.0,98,0.00,,,0.07,weatherlink.com 1.10,2013-04-01 13:30:00,
2013-04-01 06:45:00,51.6,51.0,30.10,SW,225,0.0,2.0,98,0.00,,,0.07,weatherlink.com 1.10,2013-04-01 13:45:00,
2013-04-01 07:00:00,51.8,51.0,30.11,SW,225,0.0,0.0,98,0.00,,,0.07,weatherlink.com 1.10,2013-04-01 14:00:00,
2013-04-01 07:15:00,52.0,52.0,30.11,SW,225,0.0,0.0,99,0.00,,,0.07,weatherlink.com 1.10,2013-04-01 14:15:00,
2013-04-01 07:30:00,52.2,52.0,30.11,SW,225,0.0,0.0,99,0.00,,,0.07,weatherlink.com 1.10,2013-04-01 14:30:00,
2013-04-01 07:45:00,52.6,52.0,30.12,SW,225,0.0,0.0,99,0.00,,,0.07,weatherlink.com 1.10,2013-04-01 14:45:00,
2013-04-01 08:00:00,53.3,53.0,30.12,SW,226,0.0,1.0,99,0.00,,,0.07,weatherlink.com 1.10,2013-04-01 15:00:00,
2013-04-01 08:15:00,54.7,55.0,30.13,SW,226,0.0,0.0,99,0.00,,,0.07,weatherlink.com 1.10,2013-04-01 15:15:00,
2013-04-01 08:31:00,55.4,55.0,30.13,SW,226,0.0,0.0,99,0.00,,,0.07,weatherlink.com 1.10,2013-04-01 15:31:00,
2013-04-01 08:46:00,57.2,56.0,30.13,SW,229,0.0,0.0,96,0.00,,,0.07,weatherlink.com 1.10,2013-04-01 15:46:00,
2013-04-01 09:31:00,58.7,55.0,30.14,SW,229,1.0,3.0,88,0.00,,,0.07,weatherlink.com 1.10,2013-04-01 16:31:00,
2013-04-01 09:46:00,59.6,56.0,30.14,SSE,163,3.0,3.0,86,0.00,,,0.07,weatherlink.com 1.10,2013-04-01 16:46:00,
2013-04-01 10:16:00,61.5,55.0,30.15,SSE,157,1.0,4.0,78,0.00,,,0.07,weatherlink.com 1.10,2013-04-01 17:16:00,
2013-04-01 10:31:00,61.8,56.0,30.14,East,82,0.0,3.0,80,0.00,,,0.07,weatherlink.com 1.10,2013-04-01 17:31:00,
2013-04-01 11:01:00,61.6,56.0,30.15,WSW,239,3.0,4.0,81,0.00,,,0.07,weatherlink.com 1.10,2013-04-01 18:01:00,
2013-04-01 11:16:00,62.1,55.0,30.15,SW,234,2.0,5.0,78,0.00,,,0.07,weatherlink.com 1.10,2013-04-01 18:16:00,
2013-04-01 11:46:00,63.8,54.0,30.15,ESE,107,3.0,4.0,70,0.00,,,0.07,weatherlink.com 1.10,2013-04-01 18:46:00,
2013-04-01 12:01:00,63.3,53.0,30.15,SSE,166,0.0,3.0,70,0.00,,,0.07,weatherlink.com 1.10,2013-04-01 19:01:00,
2013-04-01 12:16:00,63.8,55.0,30.14,SSE,161,3.0,3.0,73,0.00,,,0.07,weatherlink.com 1.10,2013-04-01 19:16:00,
2013-04-01 12:31:00,64.0,54.0,30.14,SW,217,1.0,7.0,70,0.00,,,0.07,weatherlink.com 1.10,2013-04-01 19:31:00,
2013-04-01 12:46:00,63.9,54.0,30.14,SW,217,3.0,5.0,70,0.00,,,0.07,weatherlink.com 1.10,2013-04-01 19:46:00,
2013-04-01 13:01:00,64.0,53.0,30.14,SW,229,0.0,4.0,67,0.00,,,0.07,weatherlink.com 1.10,2013-04-01 20:01:00,
2013-04-01 13:16:00,65.2,53.0,30.13,SW,217,4.0,5.0,66,0.00,,,0.07,weatherlink.com 1.10,2013-04-01 20:16:00,
2013-04-01 13:31:00,65.8,55.0,30.13,SW,226,2.0,7.0,68,0.00,,,0.07,weatherlink.com 1.10,2013-04-01 20:31:00,
2013-04-01 13:46:00,65.8,54.0,30.13,SW,224,6.0,7.0,65,0.00,,,0.07,weatherlink.com 1.10,2013-04-01 20:46:00,
2013-04-01 14:01:00,66.5,53.0,30.12,East,89,1.0,6.0,63,0.00,,,0.07,weatherlink.com 1.10,2013-04-01 21:01:00,
2013-04-01 14:16:00,66.6,54.0,30.12,WSW,243,4.0,7.0,64,0.00,,,0.07,weatherlink.com 1.10,2013-04-01 21:16:00,
2013-04-01 14:32:00,66.9,55.0,30.12,SW,221,3.0,8.0,65,0.00,,,0.07,weatherlink.com 1.10,2013-04-01 21:32:00,
2013-04-01 14:47:00,65.7,56.0,30.11,SW,222,5.0,10.0,70,0.00,,,0.07,weatherlink.com 1.10,2013-04-01 21:47:00,
2013-04-01 15:02:00,65.5,56.0,30.11,SW,236,6.0,9.0,71,0.00,,,0.07,weatherlink.com 1.10,2013-04-01 22:02:00,
2013-04-01 15:17:00,66.2,55.0,30.11,WSW,240,4.0,9.0,67,0.00,,,0.07,weatherlink.com 1.10,2013-04-01 22:17:00,
2013-04-01 15:32:00,66.5,55.0,30.11,WNW,287,5.0,11.0,67,0.00,,,0.07,weatherlink.com 1.10,2013-04-01 22:32:00,
2013-04-01 15:47:00,67.2,55.0,30.11,WNW,293,8.0,9.0,65,0.00,,,0.07,weatherlink.com 1.10,2013-04-01 22:47:00,
2013-04-01 16:02:00,66.9,55.0,30.10,WNW,283,7.0,9.0,66,0.00,,,0.07,weatherlink.com 1.10,2013-04-01 23:02:00,
2013-04-01 16:17:00,67.2,53.0,30.10,WNW,300,6.0,9.0,61,0.00,,,0.07,weatherlink.com 1.10,2013-04-01 23:17:00,
2013-04-01 16:32:00,67.7,54.0,30.09,WNW,296,8.0,8.0,62,0.00,,,0.07,weatherlink.com 1.10,2013-04-01 23:32:00,
2013-04-01 16:47:00,68.0,52.0,30.09,West,280,6.0,7.0,58,0.00,,,0.07,weatherlink.com 1.10,2013-04-01 23:47:00,
2013-04-01 17:02:00,68.1,50.0,30.09,SW,225,3.0,7.0,53,0.00,,,0.07,weatherlink.com 1.10,2013-04-02 00:02:00,
2013-04-01 17:17:00,67.9,52.0,30.09,WNW,300,4.0,6.0,58,0.00,,,0.07,weatherlink.com 1.10,2013-04-02 00:17:00,
2013-04-01 17:32:00,67.9,51.0,30.09,West,263,5.0,6.0,55,0.00,,,0.07,weatherlink.com 1.10,2013-04-02 00:32:00,
2013-04-01 17:47:00,67.7,52.0,30.09,West,263,3.0,6.0,58,0.00,,,0.07,weatherlink.com 1.10,2013-04-02 00:47:00,
2013-04-01 18:02:00,68.0,52.0,30.09,WSW,247,2.0,6.0,57,0.00,,,0.07,weatherlink.com 1.10,2013-04-02 01:02:00,
2013-04-01 18:17:00,67.9,53.0,30.09,West,264,4.0,6.0,60,0.00,,,0.07,weatherlink.com 1.10,2013-04-02 01:17:00,
2013-04-01 18:32:00,67.6,54.0,30.10,WSW,247,6.0,6.0,61,0.00,,,0.07,weatherlink.com 1.10,2013-04-02 01:32:00,
2013-04-01 18:47:00,67.2,54.0,30.10,WSW,246,2.0,4.0,63,0.00,,,0.07,weatherlink.com 1.10,2013-04-02 01:47:00,
2013-04-01 19:02:00,66.0,54.0,30.10,WSW,240,2.0,4.0,66,0.00,,,0.07,weatherlink.com 1.10,2013-04-02 02:02:00,
2013-04-01 19:17:00,64.6,54.0,30.10,SW,222,3.0,4.0,69,0.00,,,0.07,weatherlink.com 1.10,2013-04-02 02:17:00,
2013-04-01 19:32:00,62.8,54.0,30.11,SW,227,1.0,4.0,73,0.00,,,0.07,weatherlink.com 1.10,2013-04-02 02:32:00,
2013-04-01 19:47:00,61.7,53.0,30.11,SSW,202,5.0,6.0,74,0.00,,,0.07,weatherlink.com 1.10,2013-04-02 02:47:00,
2013-04-01 20:02:00,60.7,52.0,30.11,SW,221,2.0,6.0,74,0.00,,,0.07,weatherlink.com 1.10,2013-04-02 03:02:00,
2013-04-01 20:17:00,59.9,52.0,30.11,SW,221,3.0,4.0,76,0.00,,,0.07,weatherlink.com 1.10,2013-04-02 03:17:00,
2013-04-01 20:32:00,59.5,53.0,30.11,SSW,212,3.0,8.0,78,0.00,,,0.07,weatherlink.com 1.10,2013-04-02 03:32:00,
2013-04-01 20:47:00,59.2,53.0,30.12,SW,223,6.0,9.0,80,0.00,,,0.07,weatherlink.com 1.10,2013-04-02 03:47:00,
2013-04-01 21:02:00,58.4,53.0,30.12,WSW,238,3.0,7.0,82,0.00,,,0.07,weatherlink.com 1.10,2013-04-02 04:02:00,
2013-04-01 21:17:00,57.8,53.0,30.12,SW,226,2.0,6.0,83,0.00,,,0.07,weatherlink.com 1.10,2013-04-02 04:17:00,
2013-04-01 21:47:00,56.5,52.0,30.12,SW,221,3.0,4.0,85,0.00,,,0.07,weatherlink.com 1.10,2013-04-02 04:47:00,
2013-04-01 22:02:00,56.1,52.0,30.12,West,259,4.0,5.0,86,0.00,,,0.07,weatherlink.com 1.10,2013-04-02 05:02:00,
2013-04-01 22:17:00,55.4,52.0,30.13,SW,222,5.0,11.0,87,0.00,,,0.07,weatherlink.com 1.10,2013-04-02 05:17:00,
2013-04-01 22:32:00,54.8,51.0,30.12,WSW,237,3.0,7.0,88,0.00,,,0.07,weatherlink.com 1.10,2013-04-02 05:32:00,
2013-04-01 22:47:00,54.5,51.0,30.12,SW,233,5.0,11.0,88,0.00,,,0.07,weatherlink.com 1.10,2013-04-02 05:47:00,
2013-04-01 23:02:00,54.0,51.0,30.11,WSW,239,2.0,7.0,89,0.00,,,0.07,weatherlink.com 1.10,2013-04-02 06:02:00,
2013-04-01 23:17:00,53.5,50.0,30.12,WSW,254,3.0,3.0,89,0.00,,,0.07,weatherlink.com 1.10,2013-04-02 06:17:00,
2013-04-01 23:32:00,53.1,50.0,30.12,WSW,239,3.0,5.0,90,0.00,,,0.07,weatherlink.com 1.10,2013-04-02 06:32:00,
2013-04-01 23:47:00,52.8,50.0,30.12,WSW,239,4.0,7.0,90,0.00,,,0.07,weatherlink.com 1.10,2013-04-02 06:47:00,